sensor_id;sensor_type;location;lat;lon;timestamp;temperature;humidity
69189;DHT22;56302;52.322;5.926;2023-01-13T00:00:00;8.10;99.90
69189;DHT22;56302;52.322;5.926;2023-01-13T00:02:26;8.00;99.90
69189;DHT22;56302;52.322;5.926;2023-01-13T00:04:52;8.00;99.90
69189;DHT22;56302;52.322;5.926;2023-01-13T00:07:17;8.00;99.90
69189;DHT22;56302;52.322;5.926;2023-01-13T00:09:42;8.00;99.90
69189;DHT22;56302;52.322;5.926;2023-01-13T00:12:08;8.00;99.90
69189;DHT22;56302;52.322;5.926;2023-01-13T00:14:34;8.00;99.90
69189;DHT22;56302;52.322;5.926;2023-01-13T00:17:01;8.00;99.90
69189;DHT22;56302;52.322;5.926;2023-01-13T00:19:27;8.00;99.90
69189;DHT22;56302;52.322;5.926;2023-01-13T00:21:52;8.00;99.90
69189;DHT22;56302;52.322;5.926;2023-01-13T00:24:18;8.00;99.90
69189;DHT22;56302;52.322;5.926;2023-01-13T00:26:43;7.90;99.70
69189;DHT22;56302;52.322;5.926;2023-01-13T00:29:09;7.90;99.30
69189;DHT22;56302;52.322;5.926;2023-01-13T00:31:34;7.90;99.10
69189;DHT22;56302;52.322;5.926;2023-01-13T00:34:00;7.80;99.00
69189;DHT22;56302;52.322;5.926;2023-01-13T00:36:26;7.80;98.70
69189;DHT22;56302;52.322;5.926;2023-01-13T00:38:52;7.70;98.40
69189;DHT22;56302;52.322;5.926;2023-01-13T00:41:20;7.70;98.40
69189;DHT22;56302;52.322;5.926;2023-01-13T00:43:47;7.60;98.20
69189;DHT22;56302;52.322;5.926;2023-01-13T00:46:15;7.60;97.90
69189;DHT22;56302;52.322;5.926;2023-01-13T00:48:41;7.50;97.60
69189;DHT22;56302;52.322;5.926;2023-01-13T00:51:11;7.50;97.60
69189;DHT22;56302;52.322;5.926;2023-01-13T00:53:38;7.50;97.40
69189;DHT22;56302;52.322;5.926;2023-01-13T00:56:13;7.40;97.40
69189;DHT22;56302;52.322;5.926;2023-01-13T00:58:39;7.30;97.00
69189;DHT22;56302;52.322;5.926;2023-01-13T01:01:06;7.30;96.70
69189;DHT22;56302;52.322;5.926;2023-01-13T01:03:33;7.20;96.50
69189;DHT22;56302;52.322;5.926;2023-01-13T01:06:12;7.20;96.30
69189;DHT22;56302;52.322;5.926;2023-01-13T01:08:38;7.20;95.90
69189;DHT22;56302;52.322;5.926;2023-01-13T01:11:06;7.10;96.30
69189;DHT22;56302;52.322;5.926;2023-01-13T01:13:32;7.20;96.20
69189;DHT22;56302;52.322;5.926;2023-01-13T01:15:58;7.10;96.00
69189;DHT22;56302;52.322;5.926;2023-01-13T01:18:23;7.10;96.30
69189;DHT22;56302;52.322;5.926;2023-01-13T01:20:49;7.00;96.50
69189;DHT22;56302;52.322;5.926;2023-01-13T01:23:15;7.00;96.60
69189;DHT22;56302;52.322;5.926;2023-01-13T01:25:40;7.00;96.60
69189;DHT22;56302;52.322;5.926;2023-01-13T01:28:06;7.00;96.40
69189;DHT22;56302;52.322;5.926;2023-01-13T01:30:32;7.00;96.60
69189;DHT22;56302;52.322;5.926;2023-01-13T01:32:57;7.00;96.50
69189;DHT22;56302;52.322;5.926;2023-01-13T01:35:23;7.00;96.80
69189;DHT22;56302;52.322;5.926;2023-01-13T01:37:49;7.00;96.90
69189;DHT22;56302;52.322;5.926;2023-01-13T01:40:14;6.90;97.00
69189;DHT22;56302;52.322;5.926;2023-01-13T01:42:40;6.90;97.20
69189;DHT22;56302;52.322;5.926;2023-01-13T01:45:26;6.90;97.30
69189;DHT22;56302;52.322;5.926;2023-01-13T01:47:58;6.90;97.50
69189;DHT22;56302;52.322;5.926;2023-01-13T01:50:25;6.90;98.00
69189;DHT22;56302;52.322;5.926;2023-01-13T01:52:58;6.80;97.80
69189;DHT22;56302;52.322;5.926;2023-01-13T01:55:28;6.80;98.00
69189;DHT22;56302;52.322;5.926;2023-01-13T01:58:06;6.80;98.30
69189;DHT22;56302;52.322;5.926;2023-01-13T02:00:33;6.90;98.20
69189;DHT22;56302;52.322;5.926;2023-01-13T02:02:59;6.90;98.10
69189;DHT22;56302;52.322;5.926;2023-01-13T02:05:25;7.00;98.00
69189;DHT22;56302;52.322;5.926;2023-01-13T02:07:53;7.00;97.70
69189;DHT22;56302;52.322;5.926;2023-01-13T02:10:22;7.10;97.60
69189;DHT22;56302;52.322;5.926;2023-01-13T02:12:49;7.00;97.50
69189;DHT22;56302;52.322;5.926;2023-01-13T02:15:19;7.00;97.60
69189;DHT22;56302;52.322;5.926;2023-01-13T02:31:09;7.00;98.00
69189;DHT22;56302;52.322;5.926;2023-01-13T02:39:28;6.90;98.00
69189;DHT22;56302;52.322;5.926;2023-01-13T02:42:17;7.00;97.70
69189;DHT22;56302;52.322;5.926;2023-01-13T02:45:15;7.00;97.30
69189;DHT22;56302;52.322;5.926;2023-01-13T02:47:45;7.00;96.90
69189;DHT22;56302;52.322;5.926;2023-01-13T02:50:15;6.90;96.90
69189;DHT22;56302;52.322;5.926;2023-01-13T02:52:51;6.90;97.20
69189;DHT22;56302;52.322;5.926;2023-01-13T02:55:25;6.90;97.00
69189;DHT22;56302;52.322;5.926;2023-01-13T02:57:53;6.90;96.90
69189;DHT22;56302;52.322;5.926;2023-01-13T03:00:21;6.80;96.90
69189;DHT22;56302;52.322;5.926;2023-01-13T03:02:48;6.90;97.00
69189;DHT22;56302;52.322;5.926;2023-01-13T03:05:15;6.90;97.00
69189;DHT22;56302;52.322;5.926;2023-01-13T03:16:33;6.80;96.40
69189;DHT22;56302;52.322;5.926;2023-01-13T03:24:41;6.90;95.40
69189;DHT22;56302;52.322;5.926;2023-01-13T03:27:31;6.90;95.60
69189;DHT22;56302;52.322;5.926;2023-01-13T03:30:47;7.00;95.20
69189;DHT22;56302;52.322;5.926;2023-01-13T03:32:58;7.00;95.00
69189;DHT22;56302;52.322;5.926;2023-01-13T03:35:28;7.00;94.80
69189;DHT22;56302;52.322;5.926;2023-01-13T03:38:31;7.00;95.10
69189;DHT22;56302;52.322;5.926;2023-01-13T03:41:07;6.90;94.60
69189;DHT22;56302;52.322;5.926;2023-01-13T03:47:07;6.80;95.00
69189;DHT22;56302;52.322;5.926;2023-01-13T03:52:11;6.80;94.80
69189;DHT22;56302;52.322;5.926;2023-01-13T03:54:49;6.80;94.60
69189;DHT22;56302;52.322;5.926;2023-01-13T03:57:19;6.80;94.70
69189;DHT22;56302;52.322;5.926;2023-01-13T03:59:50;6.80;94.90
69189;DHT22;56302;52.322;5.926;2023-01-13T04:04:59;6.80;94.80
69189;DHT22;56302;52.322;5.926;2023-01-13T04:07:45;6.80;94.90
69189;DHT22;56302;52.322;5.926;2023-01-13T04:10:13;6.70;94.90
69189;DHT22;56302;52.322;5.926;2023-01-13T04:12:45;6.80;94.60
69189;DHT22;56302;52.322;5.926;2023-01-13T04:15:30;6.80;94.40
69189;DHT22;56302;52.322;5.926;2023-01-13T04:20:41;6.80;93.80
69189;DHT22;56302;52.322;5.926;2023-01-13T04:23:07;6.80;93.90
69189;DHT22;56302;52.322;5.926;2023-01-13T04:25:33;6.80;94.10
69189;DHT22;56302;52.322;5.926;2023-01-13T04:27:59;6.80;94.30
69189;DHT22;56302;52.322;5.926;2023-01-13T04:30:24;6.70;94.50
69189;DHT22;56302;52.322;5.926;2023-01-13T04:32:50;6.70;94.50
69189;DHT22;56302;52.322;5.926;2023-01-13T04:35:15;6.80;94.10
69189;DHT22;56302;52.322;5.926;2023-01-13T04:37:41;6.70;94.30
69189;DHT22;56302;52.322;5.926;2023-01-13T04:40:07;6.70;94.40
69189;DHT22;56302;52.322;5.926;2023-01-13T04:42:33;6.70;94.20
69189;DHT22;56302;52.322;5.926;2023-01-13T04:44:58;6.80;94.00
69189;DHT22;56302;52.322;5.926;2023-01-13T04:47:24;6.70;94.30
69189;DHT22;56302;52.322;5.926;2023-01-13T04:49:49;6.70;94.20
69189;DHT22;56302;52.322;5.926;2023-01-13T04:52:15;6.70;94.40
69189;DHT22;56302;52.322;5.926;2023-01-13T04:54:40;6.70;94.40
69189;DHT22;56302;52.322;5.926;2023-01-13T04:57:06;6.70;94.00
69189;DHT22;56302;52.322;5.926;2023-01-13T04:59:31;6.70;93.80
69189;DHT22;56302;52.322;5.926;2023-01-13T05:01:57;6.70;93.90
69189;DHT22;56302;52.322;5.926;2023-01-13T05:04:22;6.70;94.00
69189;DHT22;56302;52.322;5.926;2023-01-13T05:06:48;6.60;94.00
69189;DHT22;56302;52.322;5.926;2023-01-13T05:09:14;6.60;94.00
69189;DHT22;56302;52.322;5.926;2023-01-13T05:11:40;6.60;93.70
69189;DHT22;56302;52.322;5.926;2023-01-13T05:14:25;6.60;93.70
69189;DHT22;56302;52.322;5.926;2023-01-13T05:17:13;6.50;93.60
69189;DHT22;56302;52.322;5.926;2023-01-13T05:19:41;6.50;93.50
69189;DHT22;56302;52.322;5.926;2023-01-13T05:22:06;6.60;93.10
69189;DHT22;56302;52.322;5.926;2023-01-13T05:24:50;6.60;93.00
69189;DHT22;56302;52.322;5.926;2023-01-13T05:27:35;6.50;93.10
69189;DHT22;56302;52.322;5.926;2023-01-13T05:30:00;6.50;92.60
69189;DHT22;56302;52.322;5.926;2023-01-13T05:32:26;6.50;92.80
69189;DHT22;56302;52.322;5.926;2023-01-13T05:34:54;6.50;92.90
69189;DHT22;56302;52.322;5.926;2023-01-13T05:37:20;6.40;93.00
69189;DHT22;56302;52.322;5.926;2023-01-13T05:39:45;6.40;92.80
69189;DHT22;56302;52.322;5.926;2023-01-13T05:42:30;6.40;92.50
69189;DHT22;56302;52.322;5.926;2023-01-13T05:45:16;6.40;92.70
69189;DHT22;56302;52.322;5.926;2023-01-13T05:47:42;6.40;92.10
69189;DHT22;56302;52.322;5.926;2023-01-13T05:50:08;6.40;91.70
69189;DHT22;56302;52.322;5.926;2023-01-13T05:52:34;6.40;91.80
69189;DHT22;56302;52.322;5.926;2023-01-13T05:54:59;6.40;92.00
69189;DHT22;56302;52.322;5.926;2023-01-13T05:57:25;6.50;92.10
69189;DHT22;56302;52.322;5.926;2023-01-13T05:59:50;6.50;92.30
69189;DHT22;56302;52.322;5.926;2023-01-13T06:02:16;6.50;92.50
69189;DHT22;56302;52.322;5.926;2023-01-13T06:04:41;6.50;92.70
69189;DHT22;56302;52.322;5.926;2023-01-13T06:07:07;6.50;92.60
69189;DHT22;56302;52.322;5.926;2023-01-13T06:09:32;6.60;92.50
69189;DHT22;56302;52.322;5.926;2023-01-13T06:11:58;6.50;92.60
69189;DHT22;56302;52.322;5.926;2023-01-13T06:14:23;6.50;92.90
69189;DHT22;56302;52.322;5.926;2023-01-13T06:16:49;6.50;93.00
69189;DHT22;56302;52.322;5.926;2023-01-13T06:19:15;6.60;93.20
69189;DHT22;56302;52.322;5.926;2023-01-13T06:21:41;6.60;93.10
69189;DHT22;56302;52.322;5.926;2023-01-13T06:24:09;6.70;93.20
69189;DHT22;56302;52.322;5.926;2023-01-13T06:26:37;6.70;92.90
69189;DHT22;56302;52.322;5.926;2023-01-13T06:29:04;6.70;92.80
69189;DHT22;56302;52.322;5.926;2023-01-13T06:31:30;6.70;92.60
69189;DHT22;56302;52.322;5.926;2023-01-13T06:34:02;6.70;92.50
69189;DHT22;56302;52.322;5.926;2023-01-13T06:36:40;6.70;92.70
69189;DHT22;56302;52.322;5.926;2023-01-13T06:39:08;6.70;92.70
69189;DHT22;56302;52.322;5.926;2023-01-13T06:41:34;6.80;92.60
69189;DHT22;56302;52.322;5.926;2023-01-13T06:44:20;6.80;92.60
69189;DHT22;56302;52.322;5.926;2023-01-13T06:46:47;6.80;92.00
69189;DHT22;56302;52.322;5.926;2023-01-13T06:49:12;6.80;92.10
69189;DHT22;56302;52.322;5.926;2023-01-13T06:51:38;6.80;92.00
69189;DHT22;56302;52.322;5.926;2023-01-13T06:54:04;6.90;91.50
69189;DHT22;56302;52.322;5.926;2023-01-13T06:56:29;6.80;91.80
69189;DHT22;56302;52.322;5.926;2023-01-13T06:58:55;6.80;91.90
69189;DHT22;56302;52.322;5.926;2023-01-13T07:01:20;6.80;91.80
69189;DHT22;56302;52.322;5.926;2023-01-13T07:03:46;6.80;91.80
69189;DHT22;56302;52.322;5.926;2023-01-13T07:06:11;6.80;91.90
69189;DHT22;56302;52.322;5.926;2023-01-13T07:08:37;6.80;91.70
69189;DHT22;56302;52.322;5.926;2023-01-13T07:11:03;6.80;91.70
69189;DHT22;56302;52.322;5.926;2023-01-13T07:13:28;6.80;91.70
69189;DHT22;56302;52.322;5.926;2023-01-13T07:16:12;6.80;91.50
69189;DHT22;56302;52.322;5.926;2023-01-13T07:18:38;6.80;91.70
69189;DHT22;56302;52.322;5.926;2023-01-13T07:21:06;6.90;91.30
69189;DHT22;56302;52.322;5.926;2023-01-13T07:23:34;6.80;91.50
69189;DHT22;56302;52.322;5.926;2023-01-13T07:26:00;6.90;90.80
69189;DHT22;56302;52.322;5.926;2023-01-13T07:28:27;6.90;90.80
69189;DHT22;56302;52.322;5.926;2023-01-13T07:30:53;6.90;90.60
69189;DHT22;56302;52.322;5.926;2023-01-13T07:33:19;7.00;90.40
69189;DHT22;56302;52.322;5.926;2023-01-13T07:35:45;7.00;90.50
69189;DHT22;56302;52.322;5.926;2023-01-13T07:38:11;6.90;91.00
69189;DHT22;56302;52.322;5.926;2023-01-13T07:40:38;6.90;91.30
69189;DHT22;56302;52.322;5.926;2023-01-13T07:43:04;6.90;91.20
69189;DHT22;56302;52.322;5.926;2023-01-13T07:45:48;6.90;91.20
69189;DHT22;56302;52.322;5.926;2023-01-13T07:48:13;6.90;91.50
69189;DHT22;56302;52.322;5.926;2023-01-13T07:50:39;7.00;91.20
69189;DHT22;56302;52.322;5.926;2023-01-13T07:53:05;7.00;91.30
69189;DHT22;56302;52.322;5.926;2023-01-13T07:55:30;7.00;91.30
69189;DHT22;56302;52.322;5.926;2023-01-13T07:57:56;7.00;91.30
69189;DHT22;56302;52.322;5.926;2023-01-13T08:00:21;7.00;91.20
69189;DHT22;56302;52.322;5.926;2023-01-13T08:02:47;7.00;91.70
69189;DHT22;56302;52.322;5.926;2023-01-13T08:05:13;7.00;91.80
69189;DHT22;56302;52.322;5.926;2023-01-13T08:07:38;7.00;91.90
69189;DHT22;56302;52.322;5.926;2023-01-13T08:10:05;7.00;92.30
69189;DHT22;56302;52.322;5.926;2023-01-13T08:12:31;6.90;92.80
69189;DHT22;56302;52.322;5.926;2023-01-13T08:15:15;6.90;93.20
69189;DHT22;56302;52.322;5.926;2023-01-13T08:17:41;7.00;93.20
69189;DHT22;56302;52.322;5.926;2023-01-13T08:20:07;6.90;93.30
69189;DHT22;56302;52.322;5.926;2023-01-13T08:22:33;6.90;93.30
69189;DHT22;56302;52.322;5.926;2023-01-13T08:24:59;6.90;93.40
69189;DHT22;56302;52.322;5.926;2023-01-13T08:27:24;6.90;93.80
69189;DHT22;56302;52.322;5.926;2023-01-13T08:29:50;6.90;94.20
69189;DHT22;56302;52.322;5.926;2023-01-13T08:32:15;6.90;94.90
69189;DHT22;56302;52.322;5.926;2023-01-13T08:34:41;6.80;95.40
69189;DHT22;56302;52.322;5.926;2023-01-13T08:37:06;6.80;95.10
69189;DHT22;56302;52.322;5.926;2023-01-13T08:39:32;6.80;95.30
69189;DHT22;56302;52.322;5.926;2023-01-13T08:41:57;6.80;95.70
69189;DHT22;56302;52.322;5.926;2023-01-13T08:44:25;6.70;96.20
69189;DHT22;56302;52.322;5.926;2023-01-13T08:46:51;6.70;96.80
69189;DHT22;56302;52.322;5.926;2023-01-13T08:49:17;6.70;97.10
69189;DHT22;56302;52.322;5.926;2023-01-13T08:51:43;6.70;97.30
69189;DHT22;56302;52.322;5.926;2023-01-13T08:54:09;6.70;97.30
69189;DHT22;56302;52.322;5.926;2023-01-13T08:56:34;6.60;97.50
69189;DHT22;56302;52.322;5.926;2023-01-13T08:59:00;6.60;97.80
69189;DHT22;56302;52.322;5.926;2023-01-13T09:01:26;6.60;98.00
69189;DHT22;56302;52.322;5.926;2023-01-13T09:03:52;6.60;98.10
69189;DHT22;56302;52.322;5.926;2023-01-13T09:06:18;6.60;98.20
69189;DHT22;56302;52.322;5.926;2023-01-13T09:08:44;6.60;98.40
69189;DHT22;56302;52.322;5.926;2023-01-13T09:11:24;6.60;98.50
69189;DHT22;56302;52.322;5.926;2023-01-13T09:14:09;6.60;98.60
69189;DHT22;56302;52.322;5.926;2023-01-13T09:16:35;6.60;98.60
69189;DHT22;56302;52.322;5.926;2023-01-13T09:19:00;6.60;98.70
69189;DHT22;56302;52.322;5.926;2023-01-13T09:21:26;6.60;98.80
69189;DHT22;56302;52.322;5.926;2023-01-13T09:23:51;6.60;98.90
69189;DHT22;56302;52.322;5.926;2023-01-13T09:26:20;6.60;98.90
69189;DHT22;56302;52.322;5.926;2023-01-13T09:28:45;6.60;98.90
69189;DHT22;56302;52.322;5.926;2023-01-13T09:31:11;6.60;99.00
69189;DHT22;56302;52.322;5.926;2023-01-13T09:33:37;6.60;99.10
69189;DHT22;56302;52.322;5.926;2023-01-13T09:36:21;6.60;99.20
69189;DHT22;56302;52.322;5.926;2023-01-13T09:38:48;6.70;99.30
69189;DHT22;56302;52.322;5.926;2023-01-13T09:41:19;6.70;99.20
69189;DHT22;56302;52.322;5.926;2023-01-13T09:44:08;6.80;99.20
69189;DHT22;56302;52.322;5.926;2023-01-13T09:46:42;6.80;99.20
69189;DHT22;56302;52.322;5.926;2023-01-13T09:49:33;6.80;99.10
69189;DHT22;56302;52.322;5.926;2023-01-13T09:52:12;6.80;99.00
69189;DHT22;56302;52.322;5.926;2023-01-13T09:54:44;6.80;99.00
69189;DHT22;56302;52.322;5.926;2023-01-13T09:57:14;6.80;98.90
69189;DHT22;56302;52.322;5.926;2023-01-13T09:59:40;6.80;99.00
69189;DHT22;56302;52.322;5.926;2023-01-13T10:02:14;6.80;98.80
69189;DHT22;56302;52.322;5.926;2023-01-13T10:08:10;6.80;99.00
69189;DHT22;56302;52.322;5.926;2023-01-13T10:10:49;6.80;99.00
69189;DHT22;56302;52.322;5.926;2023-01-13T10:13:29;6.80;99.00
69189;DHT22;56302;52.322;5.926;2023-01-13T10:27:45;6.90;99.20
69189;DHT22;56302;52.322;5.926;2023-01-13T10:32:55;6.90;99.20
69189;DHT22;56302;52.322;5.926;2023-01-13T10:38:17;6.90;99.30
69189;DHT22;56302;52.322;5.926;2023-01-13T10:40:49;7.00;99.20
69189;DHT22;56302;52.322;5.926;2023-01-13T10:43:15;7.00;99.20
69189;DHT22;56302;52.322;5.926;2023-01-13T10:45:49;7.00;99.20
69189;DHT22;56302;52.322;5.926;2023-01-13T10:48:15;7.00;99.20
69189;DHT22;56302;52.322;5.926;2023-01-13T10:50:41;7.00;99.30
69189;DHT22;56302;52.322;5.926;2023-01-13T10:53:24;7.00;99.40
69189;DHT22;56302;52.322;5.926;2023-01-13T10:56:02;7.00;99.40
69189;DHT22;56302;52.322;5.926;2023-01-13T10:58:28;7.00;99.60
69189;DHT22;56302;52.322;5.926;2023-01-13T11:01:04;7.00;99.60
69189;DHT22;56302;52.322;5.926;2023-01-13T11:03:39;7.00;99.70
69189;DHT22;56302;52.322;5.926;2023-01-13T11:06:07;7.00;99.80
69189;DHT22;56302;52.322;5.926;2023-01-13T11:08:42;7.00;99.90
69189;DHT22;56302;52.322;5.926;2023-01-13T11:14:18;7.00;99.90
69189;DHT22;56302;52.322;5.926;2023-01-13T11:17:19;7.00;99.90
69189;DHT22;56302;52.322;5.926;2023-01-13T11:19:51;7.00;99.90
69189;DHT22;56302;52.322;5.926;2023-01-13T11:22:26;7.00;99.90
69189;DHT22;56302;52.322;5.926;2023-01-13T11:24:57;7.00;99.90
69189;DHT22;56302;52.322;5.926;2023-01-13T11:27:45;7.00;99.90
69189;DHT22;56302;52.322;5.926;2023-01-13T11:33:16;7.00;99.80
69189;DHT22;56302;52.322;5.926;2023-01-13T11:35:48;7.10;99.60
69189;DHT22;56302;52.322;5.926;2023-01-13T11:39:08;7.00;99.30
69189;DHT22;56302;52.322;5.926;2023-01-13T11:46:34;7.10;98.60
69189;DHT22;56302;52.322;5.926;2023-01-13T11:49:00;7.10;98.30
69189;DHT22;56302;52.322;5.926;2023-01-13T11:51:47;7.20;97.70
69189;DHT22;56302;52.322;5.926;2023-01-13T12:04:39;7.30;95.50
69189;DHT22;56302;52.322;5.926;2023-01-13T12:10:43;7.30;94.80
69189;DHT22;56302;52.322;5.926;2023-01-13T12:16:02;7.40;93.90
69189;DHT22;56302;52.322;5.926;2023-01-13T12:18:50;7.40;93.40
69189;DHT22;56302;52.322;5.926;2023-01-13T12:21:25;7.50;93.50
69189;DHT22;56302;52.322;5.926;2023-01-13T12:26:41;7.60;91.30
69189;DHT22;56302;52.322;5.926;2023-01-13T12:29:18;7.60;91.70
69189;DHT22;56302;52.322;5.926;2023-01-13T12:31:46;7.60;91.60
69189;DHT22;56302;52.322;5.926;2023-01-13T12:37:19;7.60;91.20
69189;DHT22;56302;52.322;5.926;2023-01-13T12:39:58;7.60;90.70
69189;DHT22;56302;52.322;5.926;2023-01-13T12:45:29;7.60;90.50
69189;DHT22;56302;52.322;5.926;2023-01-13T12:47:57;7.60;91.20
69189;DHT22;56302;52.322;5.926;2023-01-13T12:52:50;7.60;90.70
69189;DHT22;56302;52.322;5.926;2023-01-13T12:55:27;7.80;89.60
69189;DHT22;56302;52.322;5.926;2023-01-13T13:00:51;7.80;89.20
69189;DHT22;56302;52.322;5.926;2023-01-13T13:09:04;7.70;89.40
69189;DHT22;56302;52.322;5.926;2023-01-13T13:11:41;7.70;88.80
69189;DHT22;56302;52.322;5.926;2023-01-13T13:19:46;7.80;88.40
69189;DHT22;56302;52.322;5.926;2023-01-13T13:24:42;7.80;88.00
69189;DHT22;56302;52.322;5.926;2023-01-13T13:33:05;7.90;87.60
69189;DHT22;56302;52.322;5.926;2023-01-13T13:41:21;7.90;88.00
69189;DHT22;56302;52.322;5.926;2023-01-13T13:44:28;7.90;87.40
69189;DHT22;56302;52.322;5.926;2023-01-13T13:47:13;7.90;87.70
69189;DHT22;56302;52.322;5.926;2023-01-13T13:49:43;7.90;86.20
69189;DHT22;56302;52.322;5.926;2023-01-13T13:54:53;7.90;86.60
69189;DHT22;56302;52.322;5.926;2023-01-13T13:57:37;7.90;86.90
69189;DHT22;56302;52.322;5.926;2023-01-13T14:00:30;7.90;86.30
69189;DHT22;56302;52.322;5.926;2023-01-13T14:03:03;7.90;86.50
69189;DHT22;56302;52.322;5.926;2023-01-13T14:05:31;7.90;86.70
69189;DHT22;56302;52.322;5.926;2023-01-13T14:08:08;7.90;86.60
69189;DHT22;56302;52.322;5.926;2023-01-13T14:10:37;7.90;86.30
69189;DHT22;56302;52.322;5.926;2023-01-13T14:13:24;8.00;86.80
69189;DHT22;56302;52.322;5.926;2023-01-13T14:16:01;7.90;86.80
69189;DHT22;56302;52.322;5.926;2023-01-13T14:18:30;7.90;87.30
69189;DHT22;56302;52.322;5.926;2023-01-13T14:21:12;7.90;86.90
69189;DHT22;56302;52.322;5.926;2023-01-13T14:23:49;7.90;86.60
69189;DHT22;56302;52.322;5.926;2023-01-13T14:26:15;8.00;85.50
69189;DHT22;56302;52.322;5.926;2023-01-13T14:28:41;8.00;85.30
69189;DHT22;56302;52.322;5.926;2023-01-13T14:31:08;8.00;85.70
69189;DHT22;56302;52.322;5.926;2023-01-13T14:33:37;8.00;85.80
69189;DHT22;56302;52.322;5.926;2023-01-13T14:38:35;8.00;86.10
69189;DHT22;56302;52.322;5.926;2023-01-13T14:41:18;8.00;85.90
69189;DHT22;56302;52.322;5.926;2023-01-13T14:43:45;8.00;86.20
69189;DHT22;56302;52.322;5.926;2023-01-13T14:46:12;7.90;86.70
69189;DHT22;56302;52.322;5.926;2023-01-13T14:48:38;7.90;87.10
69189;DHT22;56302;52.322;5.926;2023-01-13T14:51:08;7.90;86.80
69189;DHT22;56302;52.322;5.926;2023-01-13T14:53:43;7.90;86.00
69189;DHT22;56302;52.322;5.926;2023-01-13T14:56:40;7.90;86.20
69189;DHT22;56302;52.322;5.926;2023-01-13T15:02:21;7.90;86.90
69189;DHT22;56302;52.322;5.926;2023-01-13T15:04:46;7.90;87.00
69189;DHT22;56302;52.322;5.926;2023-01-13T15:07:23;7.90;86.90
69189;DHT22;56302;52.322;5.926;2023-01-13T15:09:52;7.90;85.90
69189;DHT22;56302;52.322;5.926;2023-01-13T15:12:36;7.90;85.80
69189;DHT22;56302;52.322;5.926;2023-01-13T15:17:52;7.90;86.70
69189;DHT22;56302;52.322;5.926;2023-01-13T15:20:20;7.90;86.90
69189;DHT22;56302;52.322;5.926;2023-01-13T15:22:47;7.90;86.90
69189;DHT22;56302;52.322;5.926;2023-01-13T15:25:13;7.90;87.40
69189;DHT22;56302;52.322;5.926;2023-01-13T15:27:39;7.90;86.90
69189;DHT22;56302;52.322;5.926;2023-01-13T15:30:17;7.80;87.50
69189;DHT22;56302;52.322;5.926;2023-01-13T15:32:43;7.80;87.80
69189;DHT22;56302;52.322;5.926;2023-01-13T15:35:12;7.70;88.80
69189;DHT22;56302;52.322;5.926;2023-01-13T15:37:38;7.70;89.00
69189;DHT22;56302;52.322;5.926;2023-01-13T15:40:31;7.70;88.90
69189;DHT22;56302;52.322;5.926;2023-01-13T15:42:56;7.70;88.50
69189;DHT22;56302;52.322;5.926;2023-01-13T15:45:41;7.70;88.70
69189;DHT22;56302;52.322;5.926;2023-01-13T15:48:26;7.70;88.90
69189;DHT22;56302;52.322;5.926;2023-01-13T15:50:55;7.70;88.50
69189;DHT22;56302;52.322;5.926;2023-01-13T15:53:20;7.70;89.70
69189;DHT22;56302;52.322;5.926;2023-01-13T15:55:50;7.60;89.70
69189;DHT22;56302;52.322;5.926;2023-01-13T15:58:19;7.60;89.90
69189;DHT22;56302;52.322;5.926;2023-01-13T16:00:44;7.60;89.70
69189;DHT22;56302;52.322;5.926;2023-01-13T16:03:12;7.60;88.70
69189;DHT22;56302;52.322;5.926;2023-01-13T16:05:38;7.60;88.70
69189;DHT22;56302;52.322;5.926;2023-01-13T16:08:04;7.60;89.20
69189;DHT22;56302;52.322;5.926;2023-01-13T16:10:30;7.70;88.30
69189;DHT22;56302;52.322;5.926;2023-01-13T16:12:55;7.70;88.10
69189;DHT22;56302;52.322;5.926;2023-01-13T16:15:21;7.70;88.10
69189;DHT22;56302;52.322;5.926;2023-01-13T16:17:55;7.70;87.90
69189;DHT22;56302;52.322;5.926;2023-01-13T16:20:21;7.70;87.60
69189;DHT22;56302;52.322;5.926;2023-01-13T16:22:47;7.70;87.10
69189;DHT22;56302;52.322;5.926;2023-01-13T16:25:22;7.70;87.40
69189;DHT22;56302;52.322;5.926;2023-01-13T16:27:48;7.70;87.80
69189;DHT22;56302;52.322;5.926;2023-01-13T16:30:28;7.70;87.90
69189;DHT22;56302;52.322;5.926;2023-01-13T16:32:54;7.60;88.00
69189;DHT22;56302;52.322;5.926;2023-01-13T16:35:21;7.60;87.70
69189;DHT22;56302;52.322;5.926;2023-01-13T16:37:47;7.70;87.60
69189;DHT22;56302;52.322;5.926;2023-01-13T16:40:28;7.70;87.70
69189;DHT22;56302;52.322;5.926;2023-01-13T16:42:54;7.60;87.90
69189;DHT22;56302;52.322;5.926;2023-01-13T16:45:20;7.60;88.00
69189;DHT22;56302;52.322;5.926;2023-01-13T16:47:45;7.70;87.40
69189;DHT22;56302;52.322;5.926;2023-01-13T16:50:35;7.60;86.90
69189;DHT22;56302;52.322;5.926;2023-01-13T16:53:02;7.60;87.60
69189;DHT22;56302;52.322;5.926;2023-01-13T16:55:28;7.70;86.60
69189;DHT22;56302;52.322;5.926;2023-01-13T16:57:53;7.60;87.30
69189;DHT22;56302;52.322;5.926;2023-01-13T17:00:20;7.50;88.00
69189;DHT22;56302;52.322;5.926;2023-01-13T17:02:45;7.50;87.80
69189;DHT22;56302;52.322;5.926;2023-01-13T17:05:12;7.60;87.50
69189;DHT22;56302;52.322;5.926;2023-01-13T17:07:38;7.50;87.90
69189;DHT22;56302;52.322;5.926;2023-01-13T17:10:04;7.40;88.10
69189;DHT22;56302;52.322;5.926;2023-01-13T17:12:30;7.40;88.10
69189;DHT22;56302;52.322;5.926;2023-01-13T17:14:55;7.40;88.20
69189;DHT22;56302;52.322;5.926;2023-01-13T17:17:26;7.30;88.40
69189;DHT22;56302;52.322;5.926;2023-01-13T17:19:53;7.40;88.00
69189;DHT22;56302;52.322;5.926;2023-01-13T17:22:19;7.40;88.10
69189;DHT22;56302;52.322;5.926;2023-01-13T17:24:45;7.30;88.50
69189;DHT22;56302;52.322;5.926;2023-01-13T17:27:11;7.30;88.90
69189;DHT22;56302;52.322;5.926;2023-01-13T17:29:37;7.40;88.60
69189;DHT22;56302;52.322;5.926;2023-01-13T17:32:03;7.40;88.80
69189;DHT22;56302;52.322;5.926;2023-01-13T17:34:29;7.30;89.20
69189;DHT22;56302;52.322;5.926;2023-01-13T17:36:55;7.30;88.90
69189;DHT22;56302;52.322;5.926;2023-01-13T17:39:23;7.30;89.20
69189;DHT22;56302;52.322;5.926;2023-01-13T17:41:50;7.30;89.10
69189;DHT22;56302;52.322;5.926;2023-01-13T17:44:17;7.20;89.60
69189;DHT22;56302;52.322;5.926;2023-01-13T17:46:43;7.20;89.80
69189;DHT22;56302;52.322;5.926;2023-01-13T17:49:14;7.10;89.90
69189;DHT22;56302;52.322;5.926;2023-01-13T17:51:40;7.10;89.80
69189;DHT22;56302;52.322;5.926;2023-01-13T17:54:07;7.10;89.70
69189;DHT22;56302;52.322;5.926;2023-01-13T17:56:36;7.10;89.70
69189;DHT22;56302;52.322;5.926;2023-01-13T17:59:02;7.10;90.00
69189;DHT22;56302;52.322;5.926;2023-01-13T18:01:28;7.10;90.30
69189;DHT22;56302;52.322;5.926;2023-01-13T18:04:00;7.10;90.70
69189;DHT22;56302;52.322;5.926;2023-01-13T18:06:25;7.10;91.20
69189;DHT22;56302;52.322;5.926;2023-01-13T18:08:51;7.10;91.20
69189;DHT22;56302;52.322;5.926;2023-01-13T18:11:19;7.10;90.80
69189;DHT22;56302;52.322;5.926;2023-01-13T18:13:47;7.10;90.80
69189;DHT22;56302;52.322;5.926;2023-01-13T18:16:14;7.10;91.10
69189;DHT22;56302;52.322;5.926;2023-01-13T18:18:42;7.10;91.20
69189;DHT22;56302;52.322;5.926;2023-01-13T18:21:26;7.10;90.80
69189;DHT22;56302;52.322;5.926;2023-01-13T18:24:12;7.10;90.60
69189;DHT22;56302;52.322;5.926;2023-01-13T18:26:57;7.10;90.80